Time;durP1;ratioP1;P1;durP2;ratioP2;P2;SDS_P1;SDS_P2;PMS_P1;PMS_P2;Temp;Humidity;BMP_temperature;BMP_pressure;BME280_temperature;BME280_humidity;BME280_pressure;Samples;Min_cycle;Max_cycle;Signal;HPM_P1;HPM_P2
2022/05/21 00:01:06;;;;;;;0.73;0.55;;;;;;;16.07;48.15;98631.50;5045890;28;20182;-60
2022/05/21 00:03:32;;;;;;;2.10;0.80;;;;;;;16.11;48.26;98627.69;5037494;28;20228;-60
2022/05/21 00:05:57;;;;;;;3.10;0.90;;;;;;;16.00;48.25;98636.44;5035050;28;20202;-60
2022/05/21 00:08:23;;;;;;;1.00;0.90;;;;;;;16.00;48.48;98631.22;5038447;28;20231;-60
2022/05/21 00:10:48;;;;;;;0.60;0.60;;;;;;;16.00;47.69;98625.16;5037739;28;20184;-60
2022/05/21 00:13:14;;;;;;;0.98;0.88;;;;;;;15.91;48.45;98628.59;5039278;28;20247;-60
2022/05/21 00:15:40;;;;;;;0.60;0.60;;;;;;;15.90;48.59;98635.59;5039592;28;20190;-60
2022/05/21 00:18:05;;;;;;;0.80;0.80;;;;;;;15.87;48.96;98635.03;5039195;28;20209;-60
2022/05/21 00:20:49;;;;;;;0.80;0.80;;;;;;;15.77;49.15;98634.16;5041667;28;20177;-60
2022/05/21 00:23:26;;;;;;;1.13;0.73;;;;;;;15.82;48.88;98629.38;5036702;28;20663;-60
2022/05/21 00:25:59;;;;;;;2.33;1.30;;;;;;;15.77;49.48;98626.31;5033167;28;20177;-60
2022/05/21 00:28:25;;;;;;;1.00;1.00;;;;;;;15.75;49.60;98638.69;5039951;28;20180;-60
2022/05/21 00:30:50;;;;;;;2.40;1.08;;;;;;;15.73;49.94;98637.97;5018356;28;20186;-60
2022/05/21 00:33:16;;;;;;;0.73;0.73;;;;;;;15.78;49.12;98639.25;5018426;28;20175;-60
2022/05/21 00:35:42;;;;;;;1.10;1.00;;;;;;;15.78;49.11;98631.44;5028233;28;20666;-60
2022/05/21 00:38:09;;;;;;;2.13;0.95;;;;;;;15.79;49.11;98632.22;5038479;28;20686;-60
2022/05/21 00:40:35;;;;;;;0.90;0.90;;;;;;;15.77;49.22;98644.59;5030816;28;20186;-60
2022/05/21 00:43:01;;;;;;;3.28;0.95;;;;;;;15.77;48.79;98627.16;5038368;28;20189;-60
2022/05/21 00:45:27;;;;;;;3.55;1.27;;;;;;;15.91;48.63;98632.00;5040309;28;20493;-60
2022/05/21 00:47:52;;;;;;;1.77;1.20;;;;;;;15.89;49.39;98633.09;5040023;28;20651;-60
2022/05/21 00:50:22;;;;;;;0.73;0.73;;;;;;;15.85;49.30;98626.50;5036138;28;20691;-60
2022/05/21 00:52:49;;;;;;;0.88;0.82;;;;;;;15.87;48.56;98629.81;5017139;28;20185;-60
2022/05/21 00:55:19;;;;;;;1.23;0.80;;;;;;;15.65;48.50;98593.47;5018693;28;20234;-60
2022/05/21 00:59:47;;;;;;;1.65;0.90;;;;;;;15.99;48.15;98632.19;5031412;28;20301;-60
2022/05/21 01:00:41;;;;;;;0.70;0.70;;;;;;;16.00;48.31;98635.59;5041179;28;20687;-60
2022/05/21 01:03:07;;;;;;;1.33;0.68;;;;;;;15.99;48.72;98634.81;5047383;28;20173;-60
2022/05/21 01:05:33;;;;;;;0.73;0.73;;;;;;;15.98;48.16;98627.09;5030867;28;20261;-60
2022/05/21 01:08:01;;;;;;;3.35;0.82;;;;;;;15.90;48.52;98627.75;5038296;28;20244;-60
2022/05/21 01:10:29;;;;;;;2.03;1.13;;;;;;;15.87;48.84;98619.38;5042892;28;20185;-60
2022/05/21 01:12:57;;;;;;;1.65;1.00;;;;;;;15.95;48.37;98622.97;5020060;28;20769;-60
2022/05/21 01:15:33;;;;;;;0.95;0.95;;;;;;;15.90;48.74;98608.66;5017467;28;20186;-60
2022/05/21 01:17:59;;;;;;;0.85;0.75;;;;;;;15.89;49.11;98618.28;5023056;28;20251;-60
2022/05/21 01:20:36;;;;;;;1.00;0.90;;;;;;;15.83;48.86;98608.38;5035187;28;20593;-60
2022/05/21 01:23:02;;;;;;;1.70;0.93;;;;;;;15.68;49.17;98598.44;5036657;28;20272;-61
2022/05/21 01:25:29;;;;;;;0.88;0.88;;;;;;;15.67;49.61;98607.19;5033317;28;20273;-60
2022/05/21 01:27:55;;;;;;;2.15;0.90;;;;;;;15.75;49.36;98604.78;5039464;28;20274;-60
2022/05/21 01:30:26;;;;;;;1.45;1.05;;;;;;;15.66;49.71;98610.78;5035923;28;20194;-60
2022/05/21 01:32:52;;;;;;;1.08;0.90;;;;;;;15.58;49.96;98594.97;5030279;28;20189;-60
2022/05/21 01:35:18;;;;;;;2.45;0.82;;;;;;;15.67;50.08;98604.59;5036056;28;20783;-60
2022/05/21 01:37:45;;;;;;;5.10;1.08;;;;;;;15.56;50.39;98599.50;5038311;28;20255;-60
2022/05/21 01:40:11;;;;;;;1.58;0.73;;;;;;;15.40;50.42;98588.72;5043770;28;20194;-60
2022/05/21 01:42:37;;;;;;;2.53;0.90;;;;;;;15.43;51.23;98604.91;5034053;28;20190;-60
2022/05/21 01:45:04;;;;;;;0.80;0.80;;;;;;;15.33;51.16;98611.84;5037328;28;20189;-60
2022/05/21 01:47:31;;;;;;;1.35;0.80;;;;;;;15.32;51.00;98601.53;5040120;28;20273;-60
2022/05/21 01:49:57;;;;;;;3.72;0.93;;;;;;;15.44;50.73;98595.28;5037147;28;20217;-60
2022/05/21 01:52:23;;;;;;;2.17;0.90;;;;;;;15.30;51.30;98587.81;5040653;28;20267;-60
2022/05/21 01:54:48;;;;;;;0.82;0.82;;;;;;;15.22;52.48;98590.25;5038541;28;20662;-60
2022/05/21 01:57:14;;;;;;;1.17;0.85;;;;;;;15.09;52.82;98589.59;5035946;28;20229;-61
2022/05/21 01:59:40;;;;;;;1.10;1.00;;;;;;;15.00;53.09;98585.97;5038576;28;20574;-60
2022/05/21 02:02:06;;;;;;;1.40;1.23;;;;;;;15.02;52.98;98588.47;5036088;28;20189;-60
2022/05/21 02:04:31;;;;;;;1.52;0.90;;;;;;;14.94;53.08;98585.69;5035044;28;20186;-60
2022/05/21 02:06:57;;;;;;;2.20;0.90;;;;;;;14.96;52.81;98581.16;5044032;28;20178;-60
2022/05/21 02:09:22;;;;;;;0.90;0.90;;;;;;;15.04;52.51;98581.38;5036874;28;20186;-60
2022/05/21 02:11:48;;;;;;;2.00;0.70;;;;;;;15.13;52.09;98580.56;5041298;28;20260;-59
2022/05/21 02:14:13;;;;;;;1.02;0.80;;;;;;;15.17;51.47;98589.78;5033543;28;20218;-60
2022/05/21 02:16:39;;;;;;;1.45;1.00;;;;;;;15.24;51.16;98578.72;5015615;28;20213;-60
2022/05/21 02:19:06;;;;;;;4.15;1.08;;;;;;;15.21;52.11;98580.78;5017088;28;20615;-60
2022/05/21 02:21:33;;;;;;;0.68;0.68;;;;;;;15.23;51.88;98586.69;5021633;28;20189;-60
2022/05/21 02:23:59;;;;;;;0.77;0.77;;;;;;;15.16;51.77;98573.31;5030903;28;20273;-60
2022/05/21 02:26:25;;;;;;;3.58;0.93;;;;;;;15.11;51.99;98562.44;5036970;28;20277;-60
2022/05/21 02:28:51;;;;;;;1.30;0.95;;;;;;;14.83;52.17;98538.84;5041099;28;20190;-60
2022/05/21 02:31:17;;;;;;;1.38;0.90;;;;;;;15.00;52.25;98565.13;5032069;28;20185;-60
2022/05/21 02:33:43;;;;;;;3.67;0.88;;;;;;;14.95;53.13;98562.09;5030828;28;20190;-60
2022/05/21 02:36:10;;;;;;;1.15;1.05;;;;;;;14.87;52.92;98554.09;5036750;28;20182;-60
2022/05/21 02:41:20;;;;;;;0.70;0.70;;;;;;;14.82;53.32;98550.22;5037844;28;20196;-61
2022/05/21 02:43:46;;;;;;;0.82;0.82;;;;;;;14.79;54.09;98547.88;5041933;28;20194;-61
2022/05/21 02:46:13;;;;;;;0.80;0.80;;;;;;;14.83;54.14;98564.91;5043370;28;20190;-61
2022/05/21 02:48:40;;;;;;;3.35;1.10;;;;;;;14.69;53.76;98560.03;5035646;28;20186;-61
2022/05/21 02:51:07;;;;;;;1.65;1.20;;;;;;;14.90;52.94;98563.44;5042222;28;20186;-61
2022/05/21 02:53:33;;;;;;;0.85;0.85;;;;;;;14.91;53.28;98559.88;5036462;28;20210;-61
2022/05/21 02:56:11;;;;;;;1.77;0.93;;;;;;;14.89;53.37;98559.19;5033149;28;20202;-61
2022/05/21 02:58:36;;;;;;;2.25;1.10;;;;;;;14.76;53.72;98563.75;5034192;28;20217;-61
2022/05/21 03:01:03;;;;;;;0.90;0.90;;;;;;;14.68;54.08;98568.75;5034909;28;20189;-61
2022/05/21 03:03:28;;;;;;;0.80;0.80;;;;;;;14.75;53.30;98564.72;5040327;28;20243;-61
2022/05/21 03:05:54;;;;;;;0.80;0.80;;;;;;;14.73;53.71;98566.59;5046739;28;20614;-61
2022/05/21 03:11:03;;;;;;;0.95;0.88;;;;;;;14.82;52.97;98571.88;5035188;28;20189;-61
2022/05/21 03:13:32;;;;;;;0.80;0.80;;;;;;;14.85;52.94;98568.19;5036262;28;20198;-61
2022/05/21 03:15:58;;;;;;;1.15;1.05;;;;;;;14.90;51.71;98579.06;5038188;28;20639;-61
2022/05/21 03:18:23;;;;;;;0.80;0.80;;;;;;;14.96;52.89;98582.00;5030789;28;20218;-62
2022/05/21 03:20:49;;;;;;;0.95;0.90;;;;;;;15.01;51.76;98579.84;5019101;28;20185;-61
2022/05/21 03:23:15;;;;;;;4.10;1.00;;;;;;;15.09;51.89;98568.75;5020819;28;20193;-62
2022/05/21 03:25:41;;;;;;;0.82;0.82;;;;;;;15.18;52.76;98570.59;5032437;28;20716;-61
2022/05/21 03:28:07;;;;;;;0.63;0.63;;;;;;;15.20;51.98;98576.50;5043196;28;20182;-62
2022/05/21 03:30:34;;;;;;;1.25;0.88;;;;;;;15.15;52.23;98578.66;5046519;28;20259;-62
2022/05/21 03:33:00;;;;;;;1.48;0.75;;;;;;;15.12;52.35;98568.50;5033197;28;20224;-61
2022/05/21 03:35:26;;;;;;;0.98;0.98;;;;;;;15.15;52.36;98576.03;5044798;28;20244;-62
2022/05/21 03:37:52;;;;;;;1.60;1.27;;;;;;;15.04;52.97;98576.16;5038230;28;20209;-61
2022/05/21 03:40:21;;;;;;;1.13;1.00;;;;;;;15.12;52.14;98565.91;5022614;28;20244;-61
2022/05/21 03:42:47;;;;;;;2.67;0.95;;;;;;;15.03;52.73;98580.53;5039219;28;20181;-61
2022/05/21 03:45:14;;;;;;;1.05;1.00;;;;;;;14.89;53.30;98569.59;5043472;28;20572;-61
2022/05/21 03:47:41;;;;;;;1.02;1.00;;;;;;;14.92;53.19;98572.78;5037650;28;20260;-61
2022/05/21 03:50:08;;;;;;;0.70;0.70;;;;;;;14.85;52.92;98560.38;5036178;28;20185;-61
2022/05/21 03:52:34;;;;;;;0.77;0.77;;;;;;;14.94;52.89;98567.44;5033786;28;20196;-61
2022/05/21 03:55:00;;;;;;;2.15;0.80;;;;;;;15.07;53.08;98581.09;5048592;28;20209;-61
2022/05/21 03:57:26;;;;;;;1.50;0.90;;;;;;;15.11;53.88;98579.88;5035256;28;20272;-61
2022/05/21 03:59:51;;;;;;;1.08;0.93;;;;;;;15.14;54.98;98575.25;5039295;28;20185;-61
2022/05/21 04:02:17;;;;;;;2.05;0.85;;;;;;;15.28;53.98;98581.91;5037479;28;20197;-61
2022/05/21 04:04:42;;;;;;;1.00;1.00;;;;;;;15.41;54.01;98578.16;5038704;28;20201;-61
2022/05/21 04:07:09;;;;;;;1.08;0.98;;;;;;;15.55;55.31;98577.78;5040819;28;20205;-61
2022/05/21 04:09:34;;;;;;;2.75;1.30;;;;;;;15.64;55.81;98587.41;5046865;28;20616;-61
2022/05/21 04:12:00;;;;;;;1.40;1.30;;;;;;;15.73;55.62;98576.19;5045710;28;20222;-61
2022/05/21 04:14:27;;;;;;;3.05;1.40;;;;;;;15.78;59.90;98578.41;5036731;28;20548;-61
2022/05/21 04:16:58;;;;;;;2.72;2.38;;;;;;;15.89;57.08;98580.91;5031508;28;20667;-61
2022/05/21 04:19:24;;;;;;;1.92;1.67;;;;;;;16.12;56.68;98582.31;5035002;28;20185;-61
2022/05/21 04:21:50;;;;;;;2.75;1.80;;;;;;;16.28;55.00;98585.25;5020960;28;20228;-61
2022/05/21 04:24:16;;;;;;;1.08;0.90;;;;;;;16.29;53.04;98579.91;5018112;28;20217;-62
2022/05/21 04:26:42;;;;;;;3.42;1.10;;;;;;;16.23;53.06;98580.44;5020294;28;20214;-62
2022/05/21 04:29:08;;;;;;;2.55;1.52;;;;;;;16.41;54.35;98578.81;5040361;28;20195;-62
2022/05/21 04:31:34;;;;;;;1.38;1.30;;;;;;;16.58;54.58;98574.69;5036825;28;20186;-59
2022/05/21 04:33:59;;;;;;;0.82;0.80;;;;;;;16.76;52.33;98580.88;5036185;28;21141;-59
2022/05/21 04:36:25;;;;;;;1.13;0.98;;;;;;;16.82;50.48;98577.69;5033609;28;20189;-60
2022/05/21 04:38:53;;;;;;;0.77;0.77;;;;;;;16.81;50.34;98565.59;5041380;28;20177;-60
2022/05/21 04:41:20;;;;;;;0.73;0.70;;;;;;;16.98;50.90;98575.34;5034890;28;20565;-60
2022/05/21 04:43:46;;;;;;;1.00;1.00;;;;;;;16.99;50.96;98582.22;5037786;28;20192;-60
2022/05/21 04:46:12;;;;;;;3.22;1.30;;;;;;;17.11;52.14;98574.06;5038195;28;20288;-60
2022/05/21 04:48:38;;;;;;;1.35;1.13;;;;;;;17.33;50.61;98572.91;5041766;28;20228;-60
2022/05/21 04:51:04;;;;;;;3.83;1.90;;;;;;;17.57;49.92;98586.34;5035869;28;20572;-60
2022/05/21 04:53:31;;;;;;;4.78;2.10;;;;;;;17.81;49.30;98594.47;5036000;28;20190;-61
2022/05/21 04:55:56;;;;;;;2.60;1.00;;;;;;;17.61;49.65;98570.19;5041568;28;20189;-60
2022/05/21 04:58:22;;;;;;;0.98;0.95;;;;;;;17.66;49.44;98586.28;5037500;28;20220;-60
2022/05/21 05:00:48;;;;;;;1.05;1.05;;;;;;;17.75;49.28;98579.34;5038840;28;20319;-60
2022/05/21 05:03:15;;;;;;;2.60;0.90;;;;;;;17.83;49.46;98577.66;5041631;28;20318;-60
2022/05/21 05:05:42;;;;;;;1.48;0.90;;;;;;;17.72;50.39;98574.44;5036443;28;20216;-60
2022/05/21 05:08:08;;;;;;;1.67;1.10;;;;;;;17.73;50.05;98573.44;5038150;28;20195;-60
2022/05/21 05:10:36;;;;;;;2.33;1.00;;;;;;;17.72;50.04;98564.75;5036317;28;20177;-60
2022/05/21 05:13:05;;;;;;;1.25;1.00;;;;;;;17.73;50.23;98552.50;5037058;28;20199;-60
2022/05/21 05:15:30;;;;;;;0.82;0.80;;;;;;;17.83;50.10;98576.84;5032662;28;20190;-60
2022/05/21 05:18:04;;;;;;;1.00;0.90;;;;;;;17.88;49.57;98569.34;5038831;28;20255;-60
2022/05/21 05:20:30;;;;;;;1.10;1.10;;;;;;;17.88;50.36;98566.75;5038106;28;20177;-60
2022/05/21 05:22:56;;;;;;;2.60;1.40;;;;;;;18.03;50.21;98583.63;5034810;28;20196;-60
2022/05/21 05:25:21;;;;;;;3.60;1.17;;;;;;;18.19;49.42;98583.78;5029781;28;20194;-60
2022/05/21 05:27:49;;;;;;;3.17;1.63;;;;;;;17.95;49.75;98544.25;5015693;28;20185;-60
2022/05/21 05:30:16;;;;;;;2.40;1.30;;;;;;;18.25;50.13;98583.19;5020608;28;20197;-60
2022/05/21 05:32:42;;;;;;;1.25;1.05;;;;;;;18.18;50.13;98574.28;5030693;28;20213;-61
2022/05/21 05:35:07;;;;;;;1.13;0.90;;;;;;;18.25;49.80;98580.59;5043843;28;20223;-61
2022/05/21 05:37:33;;;;;;;1.10;0.98;;;;;;;18.33;50.02;98570.22;5043936;28;20284;-61
2022/05/21 05:39:59;;;;;;;1.00;0.90;;;;;;;18.45;49.00;98579.47;5030040;28;21047;-62
2022/05/21 05:42:24;;;;;;;3.40;1.10;;;;;;;18.59;49.40;98579.78;5038487;28;20334;-62
2022/05/21 05:44:50;;;;;;;1.30;1.10;;;;;;;18.64;48.98;98574.06;5031399;28;20189;-61
2022/05/21 05:47:15;;;;;;;1.35;0.98;;;;;;;18.70;48.87;98578.72;5015836;28;20566;-62
2022/05/21 05:49:41;;;;;;;2.03;1.02;;;;;;;18.70;48.73;98574.31;5017497;28;20667;-62
2022/05/21 05:52:08;;;;;;;1.55;1.20;;;;;;;18.86;48.03;98582.31;5029551;28;20185;-61
2022/05/21 05:54:35;;;;;;;3.80;1.10;;;;;;;18.99;47.95;98584.50;5034235;28;20242;-60
2022/05/21 05:57:00;;;;;;;6.38;1.65;;;;;;;19.17;47.89;98588.75;5043463;28;20217;-60
2022/05/21 06:04:54;;;;;;;7.20;2.38;;;;;;;19.59;47.56;98578.38;5040023;28;20187;-61
2022/05/21 06:07:19;;;;;;;4.60;2.15;;;;;;;19.77;47.40;98577.28;5021914;28;20190;-61
2022/05/21 06:09:45;;;;;;;2.88;2.00;;;;;;;19.94;47.36;98588.69;5016420;28;20189;-61
2022/05/21 06:12:11;;;;;;;2.40;1.55;;;;;;;20.03;46.55;98572.78;5019300;28;20192;-60
2022/05/21 06:14:36;;;;;;;2.55;1.50;;;;;;;20.10;46.32;98579.06;5040226;28;20261;-60
2022/05/21 06:17:02;;;;;;;3.15;1.90;;;;;;;20.18;46.30;98581.75;5043608;28;20299;-60
2022/05/21 06:19:27;;;;;;;3.45;1.50;;;;;;;20.34;46.44;98578.31;5029867;28;20239;-60
2022/05/21 06:22:01;;;;;;;4.55;1.38;;;;;;;20.50;45.62;98581.78;5039318;28;20193;-60
2022/05/21 06:24:27;;;;;;;1.60;1.50;;;;;;;20.61;45.77;98575.38;5044773;28;20181;-61
2022/05/21 06:26:53;;;;;;;1.95;1.15;;;;;;;20.65;45.03;98564.38;5032297;28;20185;-60
2022/05/21 06:29:18;;;;;;;1.42;1.33;;;;;;;20.78;45.18;98566.50;5015971;28;20186;-60
2022/05/21 06:31:43;;;;;;;2.17;0.93;;;;;;;20.81;44.59;98553.03;5017001;28;20181;-60
2022/05/21 06:34:09;;;;;;;1.48;0.90;;;;;;;20.88;44.53;98560.13;5022212;28;20197;-60
2022/05/21 06:36:35;;;;;;;1.13;0.93;;;;;;;20.99;44.24;98561.59;5035457;28;20199;-60
2022/05/21 06:39:01;;;;;;;1.50;1.40;;;;;;;20.96;44.52;98551.38;5035322;28;20575;-60
2022/05/21 06:41:29;;;;;;;1.17;0.90;;;;;;;21.02;43.97;98553.34;5035577;28;20188;-60
2022/05/21 06:43:55;;;;;;;1.27;1.02;;;;;;;21.06;44.09;98549.41;5037787;28;20189;-60
2022/05/21 06:46:20;;;;;;;2.05;1.02;;;;;;;21.08;45.82;98548.25;5032219;28;20548;-60
2022/05/21 06:48:46;;;;;;;3.78;1.40;;;;;;;21.11;46.11;98545.31;5040450;28;20192;-60
2022/05/21 06:51:11;;;;;;;2.53;1.50;;;;;;;21.13;46.61;98553.00;5039032;28;20181;-60
2022/05/21 06:53:37;;;;;;;1.50;1.20;;;;;;;21.21;48.41;98548.56;5041017;28;20185;-60
2022/05/21 06:56:11;;;;;;;2.47;1.60;;;;;;;21.31;48.62;98557.09;5038150;28;20615;-60
2022/05/21 06:58:36;;;;;;;2.85;1.40;;;;;;;21.47;48.29;98553.59;5041563;28;20262;-60
2022/05/21 07:01:02;;;;;;;2.53;1.50;;;;;;;21.49;48.42;98554.22;5032585;28;20794;-60
2022/05/21 07:03:27;;;;;;;5.38;1.80;;;;;;;21.36;48.72;98559.22;5039057;28;20710;-60
2022/05/21 07:08:37;;;;;;;3.78;1.65;;;;;;;21.43;47.93;98549.63;5036586;28;20236;-60
2022/05/21 07:11:03;;;;;;;14.38;3.38;;;;;;;21.56;48.45;98550.75;5039633;28;20193;-60
2022/05/21 07:13:30;;;;;;;5.97;2.88;;;;;;;21.70;48.49;98536.09;5037910;28;20209;-60
2022/05/21 07:15:57;;;;;;;6.80;2.95;;;;;;;21.80;47.87;98539.34;5040201;28;20235;-60
2022/05/21 07:18:24;;;;;;;10.43;2.85;;;;;;;21.57;48.66;98533.16;5045594;28;20201;-60
2022/05/21 07:20:50;;;;;;;7.25;2.53;;;;;;;21.67;48.46;98529.34;5042348;28;20207;-60
2022/05/21 07:23:16;;;;;;;6.88;2.70;;;;;;;21.57;48.29;98522.63;5039049;28;20588;-60
2022/05/21 07:25:42;;;;;;;10.50;2.67;;;;;;;21.69;48.34;98513.38;5036875;28;20226;-60
2022/05/21 07:28:09;;;;;;;12.10;2.95;;;;;;;21.75;48.61;98502.97;5042162;28;20260;-60
2022/05/21 07:30:35;;;;;;;13.98;3.53;;;;;;;21.80;48.70;98494.56;5035842;28;20186;-59
2022/05/21 07:33:00;;;;;;;11.82;3.28;;;;;;;21.99;48.23;98488.84;5018589;28;20269;-60
2022/05/21 07:35:28;;;;;;;16.85;3.28;;;;;;;22.13;47.96;98485.44;5020329;28;20261;-60
2022/05/21 07:37:54;;;;;;;12.80;3.40;;;;;;;22.26;47.49;98483.06;5032894;28;20193;-60
2022/05/21 07:40:24;;;;;;;8.05;3.05;;;;;;;22.23;46.81;98476.31;5041118;28;20250;-60
2022/05/21 07:42:50;;;;;;;7.65;3.72;;;;;;;22.07;47.68;98475.59;5041148;28;20204;-60
2022/05/21 07:45:17;;;;;;;12.73;4.45;;;;;;;22.16;47.82;98470.13;5030113;28;20212;-60
2022/05/21 07:47:43;;;;;;;4.85;2.45;;;;;;;22.29;46.62;98464.22;5042089;28;20283;-60
2022/05/21 07:50:09;;;;;;;3.25;2.40;;;;;;;22.35;46.45;98463.53;5046858;28;20512;-60
2022/05/21 07:52:35;;;;;;;7.20;2.38;;;;;;;22.46;46.49;98455.22;5041735;28;20697;-60
2022/05/21 07:55:01;;;;;;;8.18;2.22;;;;;;;22.64;47.61;98456.53;5038582;28;20194;-60
2022/05/21 07:57:26;;;;;;;6.40;2.03;;;;;;;22.55;48.65;98449.69;5041043;28;20308;-60
2022/05/21 07:59:52;;;;;;;7.85;2.00;;;;;;;22.47;49.10;98443.66;5044311;28;20189;-60
2022/05/21 08:02:19;;;;;;;4.50;1.85;;;;;;;22.39;50.79;98422.63;5047831;28;20710;-60
2022/05/21 08:04:46;;;;;;;3.75;1.90;;;;;;;22.59;50.90;98435.16;5037851;28;20181;-60
2022/05/21 08:07:12;;;;;;;4.13;2.00;;;;;;;22.67;50.42;98427.16;5031128;28;20178;-60
2022/05/21 08:09:38;;;;;;;3.13;1.15;;;;;;;22.65;49.97;98433.59;5038158;28;20239;-60
2022/05/21 08:12:05;;;;;;;3.58;1.65;;;;;;;22.80;50.35;98426.53;5045585;28;20185;-60
2022/05/21 08:14:32;;;;;;;3.35;1.48;;;;;;;22.87;50.23;98424.81;5019127;28;20213;-60
2022/05/21 08:16:57;;;;;;;2.85;1.73;;;;;;;22.64;52.01;98387.97;5018599;28;20210;-61
2022/05/21 08:19:23;;;;;;;4.47;1.60;;;;;;;23.01;51.21;98422.16;5029161;28;20185;-61
2022/05/21 08:21:48;;;;;;;1.65;1.25;;;;;;;23.15;50.61;98416.06;5035667;28;20280;-61
2022/05/21 08:27:02;;;;;;;1.50;1.40;;;;;;;23.39;50.78;98412.31;5039349;28;20180;-61
2022/05/21 08:29:31;;;;;;;4.15;1.80;;;;;;;23.51;50.92;98422.25;5042763;28;20204;-61
2022/05/21 08:31:58;;;;;;;3.42;1.80;;;;;;;23.57;49.78;98410.09;5037644;28;20642;-61
2022/05/21 08:34:25;;;;;;;3.10;1.63;;;;;;;23.69;48.99;98412.06;5031001;28;20287;-61
2022/05/21 08:36:51;;;;;;;5.43;1.88;;;;;;;23.80;48.75;98407.09;5017464;28;20911;-60
2022/05/21 08:39:17;;;;;;;4.75;2.58;;;;;;;23.84;48.41;98416.28;5019884;28;20288;-61
2022/05/21 08:42:17;;;;;;;2.97;1.48;;;;;;;23.78;48.71;98414.41;5038020;28;20246;-61
2022/05/21 08:44:51;;;;;;;2.67;1.60;;;;;;;23.88;49.08;98413.31;5038216;28;20181;-61
2022/05/21 08:47:27;;;;;;;6.88;2.42;;;;;;;23.97;48.85;98409.53;5037903;28;20296;-61
2022/05/21 08:50:21;;;;;;;4.32;1.83;;;;;;;24.07;47.08;98410.03;5035830;28;20168;-62
2022/05/21 08:53:01;;;;;;;2.22;1.60;;;;;;;24.16;47.09;98396.50;5040523;28;20165;-60
2022/05/21 08:55:50;;;;;;;2.28;1.70;;;;;;;24.31;44.75;98400.69;5037347;28;20191;-60
2022/05/21 08:58:30;;;;;;;3.67;1.52;;;;;;;24.43;43.95;98401.81;5035736;28;20227;-60
2022/05/21 09:00:56;;;;;;;1.90;1.75;;;;;;;24.45;43.90;98393.69;5041067;28;20180;-60
2022/05/21 09:03:24;;;;;;;9.90;2.40;;;;;;;24.48;43.66;98391.47;5034121;28;20187;-60
2022/05/21 09:06:03;;;;;;;8.48;1.73;;;;;;;24.49;43.62;98402.88;5040004;28;20215;-60
2022/05/21 09:08:39;;;;;;;2.80;1.25;;;;;;;24.56;43.15;98393.16;5037674;28;20255;-59
2022/05/21 09:11:12;;;;;;;3.80;1.90;;;;;;;24.51;42.62;98385.81;5036517;28;20185;-60
2022/05/21 09:13:46;;;;;;;6.55;1.70;;;;;;;24.48;42.11;98364.19;5027934;28;20173;-60
2022/05/21 09:19:00;;;;;;;4.20;1.73;;;;;;;24.79;41.34;98389.25;5016809;28;20213;-60
2022/05/21 09:21:28;;;;;;;5.95;2.03;;;;;;;24.91;41.34;98381.59;5019101;28;20193;-60
2022/05/21 09:23:54;;;;;;;5.22;1.38;;;;;;;25.04;40.21;98386.94;5032592;28;20185;-60
2022/05/21 09:26:24;;;;;;;7.13;1.75;;;;;;;25.11;40.74;98382.50;5036186;28;20678;-60
2022/05/21 09:28:50;;;;;;;3.10;2.10;;;;;;;25.15;39.98;98367.84;5031547;28;20181;-60
2022/05/21 09:31:30;;;;;;;2.70;1.83;;;;;;;25.19;39.00;98364.59;5033906;28;20731;-60
2022/05/21 09:34:12;;;;;;;3.00;1.83;;;;;;;25.33;39.09;98382.22;5036933;28;20177;-60
2022/05/21 09:36:39;;;;;;;3.10;1.80;;;;;;;25.40;39.34;98375.13;5036303;28;20180;-60
2022/05/21 09:39:04;;;;;;;6.35;1.88;;;;;;;25.30;40.07;98371.22;5035701;28;20657;-60
2022/05/21 09:41:32;;;;;;;4.15;1.67;;;;;;;25.41;39.03;98371.44;5036285;28;20181;-60
2022/05/21 09:46:47;;;;;;;1.75;1.27;;;;;;;25.36;38.62;98357.16;5030742;28;20239;-60
2022/05/21 09:49:15;;;;;;;5.53;1.98;;;;;;;25.43;37.03;98350.84;5035509;28;20181;-59
2022/05/21 09:51:51;;;;;;;5.88;1.95;;;;;;;25.55;37.62;98353.75;5027193;28;20207;-62
2022/05/21 09:54:20;;;;;;;3.35;1.83;;;;;;;25.65;38.30;98344.38;5032392;28;20181;-60
2022/05/21 09:56:52;;;;;;;5.20;1.70;;;;;;;25.74;37.80;98347.66;5037521;28;20224;-60
2022/05/21 09:59:24;;;;;;;3.92;1.50;;;;;;;25.78;36.67;98344.41;5037805;28;20795;-60
2022/05/21 10:01:57;;;;;;;2.38;1.80;;;;;;;25.93;36.20;98347.72;5036669;28;20840;-60
2022/05/21 10:04:34;;;;;;;2.40;1.45;;;;;;;26.04;36.94;98335.69;5039947;28;20264;-60
2022/05/21 10:13:04;;;;;;;2.90;1.58;;;;;;;26.22;35.01;98331.41;5039603;28;20192;-61
2022/05/21 10:15:35;;;;;;;4.25;1.50;;;;;;;26.33;34.06;98328.13;5038679;28;20212;-60
2022/05/21 10:18:12;;;;;;;11.38;1.80;;;;;;;26.46;34.17;98325.44;5047065;28;20196;-61
2022/05/21 10:20:44;;;;;;;3.88;1.75;;;;;;;26.64;33.16;98330.94;5029263;28;20192;-60
2022/05/21 10:23:27;;;;;;;6.07;1.80;;;;;;;26.79;32.78;98334.19;5040894;28;20624;-60
2022/05/21 10:26:01;;;;;;;4.18;2.00;;;;;;;27.00;32.90;98325.13;5046788;28;20191;-60
2022/05/21 10:29:04;;;;;;;4.20;1.77;;;;;;;27.10;33.54;98334.25;5049462;28;20243;-60
2022/05/21 10:31:51;;;;;;;3.08;1.60;;;;;;;26.98;32.64;98327.97;5036417;28;20696;-60
2022/05/21 10:34:35;;;;;;;9.80;2.40;;;;;;;27.13;33.20;98336.50;5043712;28;20181;-60
2022/05/21 10:37:29;;;;;;;4.47;1.80;;;;;;;27.30;32.35;98336.88;5037089;28;20216;-60
2022/05/21 10:40:09;;;;;;;4.97;2.53;;;;;;;27.41;32.64;98337.00;5048494;28;20280;-60
2022/05/21 10:42:38;;;;;;;25.05;8.57;;;;;;;27.75;30.27;98331.25;5038977;28;20751;-61
2022/05/21 10:45:06;;;;;;;4.57;3.00;;;;;;;28.12;29.72;98337.56;5041138;28;20294;-60
2022/05/21 10:47:38;;;;;;;3.50;1.90;;;;;;;28.46;28.97;98337.88;5041571;28;20188;-61
2022/05/21 10:50:33;;;;;;;3.05;2.22;;;;;;;28.79;28.31;98340.25;5047211;28;20220;-59
2022/05/21 10:53:30;;;;;;;3.50;1.83;;;;;;;29.07;27.62;98336.03;5040067;28;20574;-60
2022/05/21 10:56:23;;;;;;;5.38;1.70;;;;;;;29.35;27.61;98328.28;5045197;28;20280;-59
2022/05/21 10:59:13;;;;;;;1.75;1.50;;;;;;;29.42;27.23;98337.00;5034155;28;20207;-60
2022/05/21 11:02:08;;;;;;;4.55;1.95;;;;;;;29.50;26.63;98333.22;5029987;28;20324;-59
2022/05/21 11:04:39;;;;;;;4.10;1.77;;;;;;;29.62;26.48;98331.44;5018393;28;20189;-60
2022/05/21 11:07:08;;;;;;;2.95;1.95;;;;;;;29.66;26.57;98322.72;5023869;28;20189;-60
2022/05/21 11:09:36;;;;;;;4.03;1.50;;;;;;;29.75;25.62;98323.22;5033196;28;20213;-60
2022/05/21 11:12:24;;;;;;;2.13;1.77;;;;;;;29.90;25.39;98324.41;5040087;28;20193;-60
2022/05/21 11:14:59;;;;;;;6.80;2.25;;;;;;;30.05;25.64;98319.47;5039057;28;20264;-60
2022/05/21 11:17:36;;;;;;;5.57;1.70;;;;;;;30.06;25.91;98321.06;5042935;28;20284;-60
2022/05/21 11:20:02;;;;;;;3.80;1.88;;;;;;;30.20;25.50;98314.50;5038549;28;20203;-60
2022/05/21 11:23:09;;;;;;;7.03;2.13;;;;;;;30.13;25.70;98313.81;5041413;28;20192;-60
2022/05/21 11:25:47;;;;;;;6.45;1.70;;;;;;;29.96;26.05;98310.16;5038212;28;20284;-60
2022/05/21 11:28:43;;;;;;;2.22;1.73;;;;;;;30.24;25.65;98304.16;5042986;28;20176;-61
2022/05/21 11:39:46;;;;;;;5.50;2.03;;;;;;;30.57;24.99;98291.03;5040992;28;20187;-60
2022/05/21 11:42:16;;;;;;;6.35;1.83;;;;;;;30.69;26.95;98283.84;5045322;28;20173;-60
2022/05/21 11:45:06;;;;;;;4.47;1.30;;;;;;;30.99;25.50;98289.78;5039816;28;20262;-60
2022/05/21 11:47:47;;;;;;;1.88;1.40;;;;;;;31.24;25.09;98285.78;5039542;28;20584;-60
2022/05/21 11:50:24;;;;;;;3.50;1.48;;;;;;;31.45;25.18;98279.78;5036689;28;20190;-60
2022/05/21 11:52:53;;;;;;;2.42;1.98;;;;;;;31.67;24.87;98277.19;5030486;28;20568;-62
2022/05/21 11:55:21;;;;;;;1.30;1.30;;;;;;;31.83;24.82;98274.56;5041736;28;20212;-61
2022/05/21 11:57:51;;;;;;;2.85;1.42;;;;;;;31.92;23.52;98267.75;5038846;28;20346;-61
2022/05/21 12:00:17;;;;;;;1.17;1.08;;;;;;;31.98;21.89;98266.78;5030433;28;20177;-61
2022/05/21 12:03:06;;;;;;;3.08;1.40;;;;;;;32.10;22.92;98264.81;5037880;28;20173;-61
2022/05/21 12:05:31;;;;;;;2.60;1.10;;;;;;;32.08;21.75;98255.41;5025189;28;20200;-61
2022/05/21 12:08:13;;;;;;;1.35;1.20;;;;;;;32.15;22.73;98248.81;5018584;28;20170;-61
2022/05/21 12:11:04;;;;;;;2.80;1.30;;;;;;;32.38;22.18;98245.16;5023681;28;20263;-61
2022/05/21 12:13:33;;;;;;;2.50;1.35;;;;;;;32.58;21.76;98246.22;5039961;28;20291;-61
2022/05/21 12:16:00;;;;;;;2.15;1.52;;;;;;;32.75;22.02;98244.28;5033320;28;20195;-61
2022/05/21 12:18:35;;;;;;;2.67;1.13;;;;;;;32.90;20.57;98244.53;5031194;28;20206;-61
2022/05/21 12:21:01;;;;;;;1.70;1.20;;;;;;;33.11;20.41;98240.19;5032712;28;20191;-61